createdAt,value
2023-03-22T00:00:15.498Z,71.67
2023-03-22T00:02:43.241Z,68.67
2023-03-22T00:05:11.001Z,66.67
2023-03-22T00:07:58.977Z,71.33
2023-03-22T00:10:29.003Z,57.00
2023-03-22T00:12:57.225Z,69.33
2023-03-22T00:15:24.656Z,61.00
2023-03-22T00:17:53.079Z,65.67
2023-03-22T00:20:23.721Z,69.00
2023-03-22T00:22:51.097Z,58.33
2023-03-22T00:25:21.294Z,66.33
2023-03-22T00:27:48.922Z,51.33
2023-03-22T00:30:16.562Z,44.33
2023-03-22T00:32:45.075Z,54.33
2023-03-22T00:35:12.984Z,42.00
2023-03-22T00:37:40.370Z,52.67
2023-03-22T00:40:11.250Z,55.33
2023-03-22T00:42:40.371Z,58.00
2023-03-22T00:45:11.320Z,45.67
2023-03-22T00:47:39.311Z,65.33
2023-03-22T00:50:07.853Z,58.67
2023-03-22T00:52:35.509Z,67.67
2023-03-22T00:55:03.290Z,65.67
2023-03-22T00:57:31.021Z,59.67
2023-03-22T00:59:58.535Z,56.00
2023-03-22T01:02:29.749Z,60.00
2023-03-22T01:04:57.926Z,62.00
2023-03-22T01:07:28.219Z,62.67
2023-03-22T01:09:55.615Z,69.67
2023-03-22T01:12:23.239Z,62.67
2023-03-22T01:14:50.808Z,64.00
2023-03-22T01:17:19.841Z,64.67
2023-03-22T01:19:47.260Z,62.00
2023-03-22T01:22:14.762Z,63.67
2023-03-22T01:24:44.240Z,61.33
2023-03-22T01:27:11.996Z,60.33
2023-03-22T01:29:39.342Z,60.00
2023-03-22T01:32:06.906Z,30.67
2023-03-22T01:34:34.602Z,53.33
2023-03-22T01:37:02.063Z,62.00
2023-03-22T01:39:29.732Z,57.00
2023-03-22T01:41:57.184Z,55.33
2023-03-22T01:44:24.587Z,58.33
2023-03-22T01:46:52.186Z,64.00
2023-03-22T01:49:34.146Z,57.33
2023-03-22T01:52:06.437Z,53.33
2023-03-22T01:54:50.288Z,51.33
2023-03-22T01:57:18.565Z,49.33
2023-03-22T01:59:47.539Z,56.33
2023-03-22T02:02:22.167Z,53.33
2023-03-22T02:04:58.234Z,49.00
2023-03-22T02:07:28.642Z,50.67
2023-03-22T02:10:23.396Z,46.33
2023-03-22T02:13:14.045Z,44.67
2023-03-22T02:16:14.573Z,48.33
2023-03-22T02:18:57.599Z,48.67
2023-03-22T02:22:02.398Z,47.00
2023-03-22T02:25:05.415Z,48.00
2023-03-22T02:27:41.706Z,44.67
2023-03-22T02:30:33.857Z,42.33
2023-03-22T02:33:35.945Z,47.33
2023-03-22T02:36:19.951Z,44.67
2023-03-22T02:38:59.635Z,42.33
2023-03-22T02:41:33.173Z,41.33
2023-03-22T02:44:17.688Z,44.00
2023-03-22T02:46:52.821Z,38.67
2023-03-22T02:49:36.414Z,42.00
2023-03-22T02:52:17.697Z,44.00
2023-03-22T02:55:09.878Z,41.67
2023-03-22T02:57:54.518Z,45.00
2023-03-22T03:00:22.493Z,37.67
2023-03-22T03:02:55.147Z,42.67
2023-03-22T03:05:26.229Z,41.75
2023-03-22T03:07:59.726Z,42.67
2023-03-22T03:10:33.418Z,42.00
2023-03-22T03:13:01.248Z,40.00
2023-03-22T03:15:28.956Z,37.67
2023-03-22T03:18:19.206Z,34.00
2023-03-22T03:21:05.078Z,38.25
2023-03-22T03:23:54.973Z,42.00
2023-03-22T03:26:52.815Z,37.67
2023-03-22T03:29:24.163Z,39.67
2023-03-22T03:32:15.958Z,41.00
2023-03-22T03:34:49.764Z,8.75
2023-03-22T03:37:22.897Z,40.75
2023-03-22T03:39:59.007Z,37.50
2023-03-22T03:42:28.591Z,40.00
2023-03-22T03:44:56.643Z,38.33
2023-03-22T03:47:26.082Z,40.33
2023-03-22T03:49:53.904Z,37.00
2023-03-22T03:52:24.636Z,42.00
2023-03-22T03:54:52.774Z,45.67
2023-03-22T03:57:22.309Z,41.33
2023-03-22T03:59:50.278Z,44.00
2023-03-22T04:02:17.721Z,50.67
2023-03-22T04:04:45.401Z,39.00
2023-03-22T04:07:12.911Z,43.00
2023-03-22T04:09:40.627Z,46.00
2023-03-22T04:12:12.864Z,43.00
2023-03-22T04:14:41.839Z,42.33
2023-03-22T04:17:09.906Z,45.00
2023-03-22T04:19:38.005Z,41.67
2023-03-22T04:22:05.957Z,47.33
2023-03-22T04:24:33.532Z,51.33
2023-03-22T04:27:01.066Z,48.67
2023-03-22T04:29:32.382Z,42.00
2023-03-22T04:32:00.997Z,35.33
2023-03-22T04:34:28.742Z,42.25
2023-03-22T04:36:56.288Z,41.33
2023-03-22T04:39:23.840Z,42.33
2023-03-22T04:41:51.245Z,45.00
2023-03-22T04:44:20.450Z,45.00
2023-03-22T04:46:47.956Z,48.67
2023-03-22T04:49:15.974Z,43.33
2023-03-22T04:51:43.313Z,42.67
2023-03-22T04:54:10.727Z,42.33
2023-03-22T04:56:38.061Z,46.67
2023-03-22T04:59:05.499Z,45.33
2023-03-22T05:01:40.814Z,44.67
2023-03-22T05:04:08.916Z,44.33
2023-03-22T05:06:36.457Z,41.33
2023-03-22T05:09:08.187Z,46.67
2023-03-22T05:11:37.144Z,41.50
2023-03-22T05:14:04.877Z,44.00
2023-03-22T05:16:33.528Z,45.00
2023-03-22T05:19:02.503Z,41.00
2023-03-22T05:21:36.728Z,39.25
2023-03-22T05:24:04.393Z,39.25
2023-03-22T05:26:31.853Z,45.50
2023-03-22T05:28:59.574Z,41.50
2023-03-22T05:31:28.833Z,41.25
2023-03-22T05:34:04.146Z,39.50
2023-03-22T05:36:36.626Z,45.67
2023-03-22T05:39:04.680Z,40.75
2023-03-22T05:41:36.379Z,79.00
2023-03-22T05:44:05.158Z,58.67
2023-03-22T05:46:36.581Z,41.00
2023-03-22T05:49:03.988Z,40.75
2023-03-22T05:51:32.247Z,38.75
2023-03-22T05:54:00.488Z,42.50
2023-03-22T05:56:27.907Z,41.00
2023-03-22T05:58:58.268Z,37.00
2023-03-22T06:01:25.891Z,40.00
2023-03-22T06:03:53.340Z,39.75
2023-03-22T06:06:20.715Z,39.00
2023-03-22T06:08:48.711Z,39.25
2023-03-22T06:11:22.896Z,38.50
2023-03-22T06:13:50.490Z,39.75
2023-03-22T06:16:17.976Z,41.50
2023-03-22T06:18:46.844Z,38.00
2023-03-22T06:21:14.452Z,38.00
2023-03-22T06:23:43.701Z,36.50
2023-03-22T06:26:11.623Z,38.25
2023-03-22T06:28:39.188Z,38.00
2023-03-22T06:31:08.296Z,38.00
2023-03-22T06:33:37.736Z,42.25
2023-03-22T06:36:05.556Z,37.50
2023-03-22T06:38:33.081Z,42.00
2023-03-22T06:41:00.497Z,38.25
2023-03-22T06:43:27.918Z,38.25
2023-03-22T06:45:57.388Z,40.75
2023-03-22T06:48:24.933Z,41.75
2023-03-22T06:50:52.305Z,37.00
2023-03-22T06:53:20.905Z,38.67
2023-03-22T06:55:48.309Z,35.25
2023-03-22T06:58:15.693Z,42.00
2023-03-22T07:00:43.365Z,39.25
2023-03-22T07:03:10.796Z,40.00
2023-03-22T07:05:39.831Z,39.50
2023-03-22T07:08:07.482Z,34.25
2023-03-22T07:10:38.516Z,40.75
2023-03-22T07:13:07.023Z,40.75
2023-03-22T07:15:35.177Z,55.25
2023-03-22T07:18:08.636Z,57.75
2023-03-22T07:20:41.639Z,87.33
2023-03-22T07:23:10.945Z,62.25
2023-03-22T07:25:38.440Z,48.50
2023-03-22T07:28:07.161Z,52.25
2023-03-22T07:30:37.593Z,44.25
2023-03-22T07:33:10.664Z,55.25
2023-03-22T07:35:38.617Z,48.00
2023-03-22T07:38:06.671Z,49.75
2023-03-22T07:40:34.607Z,53.00
2023-03-22T07:43:02.147Z,57.00
2023-03-22T07:45:29.664Z,50.00
2023-03-22T07:48:17.761Z,50.25
2023-03-22T07:50:45.484Z,44.75
2023-03-22T07:53:13.372Z,42.25
2023-03-22T07:55:42.473Z,45.00
2023-03-22T07:58:10.659Z,45.00
2023-03-22T08:00:38.630Z,38.75
2023-03-22T08:03:07.133Z,39.75
2023-03-22T08:05:35.508Z,38.25
2023-03-22T08:08:03.154Z,40.75
2023-03-22T08:10:32.964Z,36.25
2023-03-22T08:13:01.376Z,41.00
2023-03-22T08:15:28.779Z,35.25
2023-03-22T08:18:00.743Z,36.75
2023-03-22T08:20:28.173Z,35.00
2023-03-22T08:23:01.281Z,31.75
2023-03-22T08:25:29.735Z,33.00
2023-03-22T08:27:57.678Z,34.00
2023-03-22T08:30:26.132Z,35.00
2023-03-22T08:32:53.615Z,30.75
2023-03-22T08:35:22.239Z,29.00
2023-03-22T08:37:53.785Z,29.00
2023-03-22T08:40:23.126Z,27.50
2023-03-22T08:42:51.091Z,23.00
2023-03-22T08:45:18.715Z,18.50
2023-03-22T08:47:46.290Z,20.00
2023-03-22T08:50:13.858Z,21.50
2023-03-22T08:52:42.799Z,23.00
2023-03-22T08:55:10.571Z,26.00
2023-03-22T08:57:50.362Z,24.75
2023-03-22T09:00:19.212Z,25.00
2023-03-22T09:02:47.985Z,22.50
2023-03-22T09:05:15.621Z,24.25
2023-03-22T09:07:47.040Z,23.25
2023-03-22T09:10:15.216Z,25.25
2023-03-22T09:12:43.088Z,24.25
2023-03-22T09:15:41.893Z,24.00
2023-03-22T09:18:10.147Z,24.25
2023-03-22T09:20:38.433Z,24.00
2023-03-22T09:23:06.664Z,24.00
2023-03-22T09:25:34.333Z,24.00
2023-03-22T09:28:02.449Z,21.75
2023-03-22T09:30:32.378Z,22.00
2023-03-22T09:33:02.010Z,22.00
2023-03-22T09:35:30.087Z,21.50
2023-03-22T09:37:59.965Z,21.25
2023-03-22T09:40:30.896Z,22.75
2023-03-22T09:43:03.043Z,23.50
2023-03-22T09:45:39.822Z,24.50
2023-03-22T09:48:17.265Z,25.75
2023-03-22T09:50:48.370Z,22.25
2023-03-22T09:53:17.967Z,21.00
2023-03-22T09:56:17.486Z,22.25
2023-03-22T09:59:06.316Z,23.25
2023-03-22T10:01:48.351Z,20.50
2023-03-22T10:04:21.599Z,23.25
2023-03-22T10:06:59.943Z,23.00
2023-03-22T10:09:42.380Z,22.00
2023-03-22T10:12:32.304Z,23.25
2023-03-22T10:15:26.837Z,18.25
2023-03-22T10:17:57.570Z,20.00
2023-03-22T10:20:32.191Z,20.00
2023-03-22T10:23:03.278Z,20.75
2023-03-22T10:25:38.435Z,7.25
2023-03-22T10:28:21.214Z,21.50
2023-03-22T10:30:54.979Z,23.00
2023-03-22T10:33:50.260Z,22.00
2023-03-22T10:36:24.421Z,21.00
2023-03-22T10:39:00.712Z,15.00
2023-03-22T10:41:33.716Z,16.00
2023-03-22T10:44:02.859Z,9.75
2023-03-22T10:46:40.734Z,12.00
2023-03-22T10:49:17.597Z,12.25
2023-03-22T10:51:59.984Z,14.75
2023-03-22T10:54:28.074Z,13.00
2023-03-22T10:56:56.536Z,12.40
2023-03-22T10:59:52.734Z,13.25
2023-03-22T11:02:24.961Z,13.25
2023-03-22T11:04:57.070Z,13.00
2023-03-22T11:07:28.215Z,8.00
2023-03-22T11:10:24.036Z,11.50
2023-03-22T11:13:14.546Z,11.00
2023-03-22T11:15:52.881Z,12.40
2023-03-22T11:18:20.794Z,12.00
2023-03-22T11:21:07.448Z,14.00
2023-03-22T11:23:39.048Z,16.80
2023-03-22T11:26:10.377Z,16.00
2023-03-22T11:28:43.116Z,20.00
2023-03-22T11:31:21.304Z,21.25
2023-03-22T11:34:01.894Z,19.75
2023-03-22T11:36:30.410Z,19.00
2023-03-22T11:39:07.997Z,20.00
2023-03-22T11:41:37.845Z,22.00
2023-03-22T11:44:10.857Z,24.50
2023-03-22T11:46:48.751Z,14.80
2023-03-22T11:49:18.097Z,15.50
2023-03-22T11:51:53.186Z,18.50
2023-03-22T11:54:31.254Z,16.80
2023-03-22T11:57:03.964Z,16.60
2023-03-22T11:59:59.798Z,19.00
2023-03-22T12:02:32.609Z,19.80
2023-03-22T12:05:12.749Z,15.40
2023-03-22T12:07:41.774Z,16.20
2023-03-22T12:10:25.170Z,18.00
2023-03-22T12:12:59.997Z,15.20
2023-03-22T12:15:40.498Z,13.25
2023-03-22T12:18:48.944Z,17.75
2023-03-22T12:21:16.814Z,14.00
2023-03-22T12:23:44.849Z,15.00
2023-03-22T12:26:12.118Z,15.60
2023-03-22T12:29:06.171Z,16.00
2023-03-22T12:31:39.469Z,15.80
2023-03-22T12:34:14.806Z,14.00
2023-03-22T12:36:50.068Z,16.20
2023-03-22T12:39:30.492Z,15.40
2023-03-22T12:42:04.001Z,15.40
2023-03-22T12:44:40.431Z,14.00
2023-03-22T12:47:19.134Z,11.00
2023-03-22T12:49:54.175Z,11.40
2023-03-22T12:52:45.454Z,11.00
2023-03-22T12:55:34.966Z,11.40
2023-03-22T12:58:06.639Z,8.20
2023-03-22T13:00:40.807Z,8.60
2023-03-22T13:03:25.198Z,10.80
2023-03-22T13:06:05.142Z,10.20
2023-03-22T13:09:02.537Z,9.80
2023-03-22T13:11:32.117Z,6.20
2023-03-22T13:14:00.274Z,15.20
2023-03-22T13:17:06.831Z,9.60
2023-03-22T13:19:38.610Z,12.40
2023-03-22T13:22:22.238Z,11.60
2023-03-22T13:25:06.281Z,8.00
2023-03-22T13:27:37.978Z,8.80
2023-03-22T13:30:21.823Z,8.00
2023-03-22T13:33:09.951Z,11.00
2023-03-22T13:35:54.393Z,9.60
2023-03-22T13:38:22.432Z,7.80
2023-03-22T13:41:44.913Z,9.60
2023-03-22T13:44:27.022Z,9.00
2023-03-22T13:47:02.462Z,10.80
2023-03-22T13:49:53.410Z,10.00
2023-03-22T13:52:27.433Z,9.00
2023-03-22T13:54:57.677Z,10.40
2023-03-22T13:57:49.343Z,9.60
2023-03-22T14:00:36.416Z,11.00
2023-03-22T14:03:23.739Z,11.00
2023-03-22T14:06:10.939Z,9.00
2023-03-22T14:08:45.987Z,6.00
2023-03-22T14:11:20.802Z,9.20
2023-03-22T14:13:53.775Z,7.80
2023-03-22T14:16:46.034Z,6.00
2023-03-22T14:19:21.954Z,10.00
